Time;durP1;ratioP1;P1;durP2;ratioP2;P2;SDS_P1;SDS_P2;PMS_P1;PMS_P2;Temp;Humidity;BMP_temperature;BMP_pressure;BME280_temperature;BME280_humidity;BME280_pressure;Samples;Min_cycle;Max_cycle;Signal;HPM_P1;HPM_P2
2021/04/14 00:02:06;;;;;;;14.23;7.22;;;;;;;5.32;75.73;101087.16;2906874;81;21125;-68
2021/04/14 00:06:11;;;;;;;13.43;7.83;;;;;;;5.26;76.15;101081.70;2906964;81;21149;-67
2021/04/14 00:10:18;;;;;;;8.83;6.55;;;;;;;5.31;76.24;101082.80;2906713;81;21185;-68
2021/04/14 00:14:21;;;;;;;9.15;5.50;;;;;;;5.37;75.87;101077.23;2958049;80;21145;-65
2021/04/14 00:18:26;;;;;;;10.53;6.17;;;;;;;5.39;75.49;101070.09;2906643;81;21169;-67
2021/04/14 00:22:29;;;;;;;11.78;7.75;;;;;;;5.44;75.72;101073.36;2906898;81;21122;-66
2021/04/14 00:26:32;;;;;;;10.90;5.78;;;;;;;5.47;75.38;101077.65;2906736;81;21221;-67
2021/04/14 00:30:37;;;;;;;12.05;5.75;;;;;;;5.46;75.38;101076.78;2906730;81;21599;-67
2021/04/14 00:34:40;;;;;;;10.85;6.62;;;;;;;5.39;75.50;101072.73;2906687;81;21173;-66
2021/04/14 00:38:43;;;;;;;17.35;7.03;;;;;;;5.39;75.43;101071.41;2902967;81;21189;-66
2021/04/14 00:42:46;;;;;;;10.88;5.95;;;;;;;5.38;74.52;101074.50;2897611;82;21508;-65
2021/04/14 00:46:50;;;;;;;13.45;7.12;;;;;;;5.43;73.76;101072.97;2897902;82;21114;-66
2021/04/14 00:50:54;;;;;;;13.30;5.65;;;;;;;5.49;73.27;101066.55;2897143;81;21153;-66
2021/04/14 00:54:57;;;;;;;8.85;4.67;;;;;;;5.55;72.96;101074.16;2897292;82;21133;-66
2021/04/14 00:59:00;;;;;;;10.43;5.65;;;;;;;5.56;72.79;101071.47;2897156;82;21166;-66
2021/04/14 01:03:07;;;;;;;9.35;6.10;;;;;;;5.55;72.62;101071.08;2897300;82;21094;-66
2021/04/14 01:07:09;;;;;;;;;;;;;;;5.54;72.45;101079.92;2900033;82;21171;-66
2021/04/14 01:11:15;;;;;;;13.18;5.83;;;;;;;5.52;72.39;101078.27;2897407;82;20277;-66
2021/04/14 01:15:23;;;;;;;7.25;3.83;;;;;;;5.55;72.38;101085.59;2897604;82;21177;-66
2021/04/14 01:19:26;;;;;;;13.30;5.12;;;;;;;5.55;72.12;101085.59;2947756;80;21166;-67
2021/04/14 01:23:31;;;;;;;10.68;5.40;;;;;;;5.56;72.19;101087.75;2897618;82;21113;-66
2021/04/14 01:27:34;;;;;;;9.63;5.12;;;;;;;5.58;71.85;101089.84;2897465;82;21185;-66
2021/04/14 01:31:38;;;;;;;7.80;5.10;;;;;;;5.55;71.82;101086.04;2897614;82;21122;-66
2021/04/14 01:35:42;;;;;;;7.35;4.58;;;;;;;5.51;71.92;101090.63;2897623;81;21432;-66
2021/04/14 01:39:45;;;;;;;5.12;3.90;;;;;;;5.51;72.09;101091.08;2897123;82;21728;-67
2021/04/14 01:43:47;;;;;;;11.20;6.00;;;;;;;5.49;72.16;101087.66;2897439;82;21146;-66
2021/04/14 01:47:50;;;;;;;13.18;7.20;;;;;;;5.48;72.08;101086.80;2897702;82;21145;-66
2021/04/14 01:51:53;;;;;;;12.13;8.13;;;;;;;5.49;72.17;101092.94;2897843;82;21118;-67
2021/04/14 01:55:56;;;;;;;23.52;11.53;;;;;;;5.47;72.31;101089.52;2897686;82;21182;-66
2021/04/14 01:59:59;;;;;;;34.53;17.23;;;;;;;5.44;72.46;101095.79;2903341;82;21133;-66
2021/04/14 02:04:03;;;;;;;27.80;13.08;;;;;;;5.43;72.53;101090.99;2897983;82;21158;-67
2021/04/14 02:08:08;;;;;;;15.65;7.75;;;;;;;5.45;72.31;101094.86;2903166;82;21157;-67
2021/04/14 02:12:12;;;;;;;7.17;5.17;;;;;;;5.42;72.17;101088.41;2897232;81;21587;-67
2021/04/14 02:16:20;;;;;;;7.45;4.45;;;;;;;5.38;72.62;101090.81;2903392;82;21157;-67
2021/04/14 02:20:25;;;;;;;12.18;6.58;;;;;;;5.35;72.83;101087.00;2897243;82;21637;-67
2021/04/14 02:24:28;;;;;;;5.20;4.03;;;;;;;5.33;72.86;101088.86;2903122;82;21628;-67
2021/04/14 02:28:31;;;;;;;5.92;3.77;;;;;;;5.27;72.91;101080.28;2897615;81;21149;-68
2021/04/14 02:32:35;;;;;;;6.85;3.62;;;;;;;5.28;73.20;101083.31;2903022;82;21130;-68
2021/04/14 02:36:40;;;;;;;8.85;3.37;;;;;;;5.35;72.53;101089.64;2897591;82;21183;-66
2021/04/14 02:40:43;;;;;;;5.28;2.52;;;;;;;5.46;72.86;101089.13;2885560;81;22246;-67
2021/04/14 02:44:46;;;;;;;37.85;18.23;;;;;;;5.50;72.48;101082.33;2861037;82;21141;-67
2021/04/14 02:48:50;;;;;;;12.18;5.37;;;;;;;5.47;72.53;101088.20;2879374;82;21150;-68
2021/04/14 02:52:54;;;;;;;11.18;6.03;;;;;;;5.50;73.26;101088.05;2861052;81;21140;-68
2021/04/14 02:56:57;;;;;;;5.17;3.52;;;;;;;5.49;73.87;101083.22;2879406;82;21576;-68
2021/04/14 03:01:00;;;;;;;6.03;3.58;;;;;;;5.41;74.31;101084.06;2860822;82;21168;-68
2021/04/14 03:05:07;;;;;;;9.15;5.25;;;;;;;5.25;74.96;101082.14;2879499;82;21174;-70
2021/04/14 03:09:10;;;;;;;8.48;4.62;;;;;;;5.16;75.44;101079.95;2860767;82;21609;-69
2021/04/14 03:13:14;;;;;;;9.98;5.20;;;;;;;5.07;75.37;101075.95;2879456;82;21150;-68
2021/04/14 03:17:17;;;;;;;7.70;4.90;;;;;;;5.09;75.42;101079.82;2861241;83;21149;-67
2021/04/14 03:21:20;;;;;;;7.75;4.42;;;;;;;5.09;75.43;101076.73;2879581;82;21147;-70
2021/04/14 03:25:27;;;;;;;5.95;4.30;;;;;;;5.09;75.39;101071.91;2861030;83;21141;-67
2021/04/14 03:29:29;;;;;;;;;;;;;;;5.07;75.40;101077.72;2881865;82;21099;-64
2021/04/14 03:33:32;;;;;;;7.78;3.92;;;;;;;5.05;75.34;101082.21;2879743;82;20175;-64
2021/04/14 03:37:35;;;;;;;9.03;5.17;;;;;;;5.02;75.36;101076.64;2860835;83;21200;-64
2021/04/14 03:41:38;;;;;;;12.33;5.40;;;;;;;4.97;75.52;101072.88;2900775;82;21138;-64
2021/04/14 03:45:43;;;;;;;12.15;7.20;;;;;;;4.95;75.39;101077.82;2897574;82;21150;-64
2021/04/14 03:49:46;;;;;;;7.90;4.58;;;;;;;4.90;75.78;101078.02;2903578;82;21150;-64
2021/04/14 03:53:49;;;;;;;11.45;4.55;;;;;;;4.81;76.96;101071.39;2897585;82;21590;-64
2021/04/14 03:58:10;;;;;;;8.63;5.33;;;;;;;4.71;77.75;101072.74;2903554;82;21129;-65
2021/04/14 04:02:13;;;;;;;13.62;7.05;;;;;;;4.53;78.60;101074.42;2897331;81;21149;-65
2021/04/14 04:06:16;;;;;;;14.50;5.37;;;;;;;4.40;79.25;101077.59;2948960;80;21098;-64
2021/04/14 04:10:23;;;;;;;12.45;7.08;;;;;;;4.32;79.71;101083.63;2897357;82;21623;-65
2021/04/14 04:14:32;;;;;;;11.20;5.78;;;;;;;4.28;79.97;101089.50;2897544;82;21165;-65
2021/04/14 04:18:36;;;;;;;11.03;6.78;;;;;;;4.24;80.21;101082.66;2897180;81;21165;-64
2021/04/14 04:22:39;;;;;;;9.95;4.90;;;;;;;4.22;80.36;101094.17;2948668;80;21146;-64
2021/04/14 04:26:42;;;;;;;10.45;5.12;;;;;;;4.23;80.40;101090.62;2897729;82;21153;-63
2021/04/14 04:30:46;;;;;;;9.73;5.72;;;;;;;4.20;80.49;101092.07;2897294;81;21097;-65
2021/04/14 04:34:49;;;;;;;11.93;5.55;;;;;;;4.20;80.53;101098.66;2897308;82;21604;-64
2021/04/14 04:38:52;;;;;;;11.05;5.45;;;;;;;4.18;80.72;101099.18;2897425;82;21197;-64
2021/04/14 04:42:55;;;;;;;11.25;6.08;;;;;;;4.20;80.75;101102.61;2897252;81;21177;-62
2021/04/14 04:46:58;;;;;;;8.03;4.42;;;;;;;4.22;80.80;101106.86;2897543;82;21204;-64
2021/04/14 04:51:01;;;;;;;16.90;6.12;;;;;;;4.19;80.84;101107.47;2897262;82;21123;-63
2021/04/14 04:55:06;;;;;;;11.55;5.12;;;;;;;4.20;80.91;101106.55;2897213;82;21181;-65
2021/04/14 04:59:09;;;;;;;8.78;4.58;;;;;;;4.22;80.78;101113.45;2897318;82;21126;-63
2021/04/14 05:03:15;;;;;;;9.78;6.55;;;;;;;4.29;80.75;101120.19;2897368;82;21154;-63
2021/04/14 05:07:18;;;;;;;9.48;6.08;;;;;;;4.32;80.59;101122.30;2897772;82;21149;-63
2021/04/14 05:11:22;;;;;;;5.62;4.50;;;;;;;4.32;80.49;101128.88;2897511;81;21149;-64
2021/04/14 05:15:30;;;;;;;10.48;4.47;;;;;;;4.33;80.51;101127.52;2897302;82;21749;-63
2021/04/14 05:19:33;;;;;;;8.08;4.17;;;;;;;4.37;80.62;101131.72;2897261;82;21162;-64
2021/04/14 05:23:36;;;;;;;12.68;5.62;;;;;;;4.41;80.69;101128.03;2948576;80;21137;-64
2021/04/14 05:27:42;;;;;;;8.18;4.70;;;;;;;4.46;80.62;101133.56;2897249;82;21150;-64
2021/04/14 05:31:45;;;;;;;5.60;3.72;;;;;;;4.52;80.64;101134.60;2897521;82;21154;-64
2021/04/14 05:35:47;;;;;;;7.83;4.72;;;;;;;4.55;80.41;101135.34;2897255;82;21086;-65
2021/04/14 05:39:50;;;;;;;11.85;6.22;;;;;;;4.60;79.92;101132.52;2875591;81;21172;-64
2021/04/14 05:43:53;;;;;;;9.38;4.60;;;;;;;4.68;79.56;101142.73;2902094;82;21094;-64
2021/04/14 05:47:57;;;;;;;6.95;4.75;;;;;;;4.71;79.39;101140.79;2867952;83;21133;-64
2021/04/14 05:51:59;;;;;;;10.38;5.80;;;;;;;4.79;78.94;101134.34;2902387;82;21158;-64
2021/04/14 05:56:05;;;;;;;10.38;4.92;;;;;;;4.87;78.76;101138.81;2867870;83;21611;-64
2021/04/14 06:00:13;;;;;;;11.97;5.33;;;;;;;4.94;78.70;101136.31;2964509;80;21137;-64
2021/04/14 06:04:18;;;;;;;9.30;5.08;;;;;;;5.05;78.65;101133.64;2964312;80;21336;-64
2021/04/14 06:08:21;;;;;;;9.40;5.72;;;;;;;5.18;78.44;101124.25;2964603;80;21156;-64
2021/04/14 06:12:24;;;;;;;9.65;4.20;;;;;;;5.24;77.46;101134.99;2964402;80;21671;-64
2021/04/14 06:16:27;;;;;;;7.37;4.60;;;;;;;5.35;77.83;101131.86;2964198;80;21157;-65
2021/04/14 06:20:34;;;;;;;7.75;4.30;;;;;;;5.45;77.00;101130.97;2964490;80;21121;-64
2021/04/14 06:24:37;;;;;;;12.90;6.75;;;;;;;5.55;76.60;101129.14;2964562;80;21169;-64
2021/04/14 06:28:41;;;;;;;9.90;6.00;;;;;;;5.69;76.48;101134.20;2964323;80;21140;-64
2021/04/14 06:32:44;;;;;;;12.20;5.87;;;;;;;5.73;75.70;101135.80;2964271;80;21173;-65
2021/04/14 06:36:50;;;;;;;6.37;3.75;;;;;;;5.88;76.41;101137.28;2964283;80;21516;-64
2021/04/14 06:41:48;;;;;;;5.62;3.00;;;;;;;6.10;75.82;101133.16;2982004;79;21130;-64
2021/04/14 06:45:50;;;;;;;8.38;3.58;;;;;;;6.30;75.50;101132.19;2872397;82;21209;-65
2021/04/14 06:50:32;;;;;;;7.35;3.55;;;;;;;6.49;73.91;101134.73;2923429;81;21634;-65
2021/04/14 06:54:43;;;;;;;19.82;4.65;;;;;;;6.57;72.72;101134.34;2730417;87;21192;-65
2021/04/14 06:58:57;;;;;;;9.38;3.70;;;;;;;6.60;71.58;101138.14;2799257;85;21680;-64
2021/04/14 07:03:10;;;;;;;10.82;4.03;;;;;;;6.68;71.01;101136.43;2722373;87;21188;-64
2021/04/14 07:07:24;;;;;;;8.68;5.62;;;;;;;6.88;72.30;101137.17;2799765;85;21189;-64
2021/04/14 07:11:30;;;;;;;8.03;3.77;;;;;;;7.08;71.34;101137.45;2730872;87;21217;-65
2021/04/14 07:15:34;;;;;;;16.52;4.30;;;;;;;7.16;70.65;101131.27;2799628;85;21627;-64
2021/04/14 07:20:05;;;;;;;7.45;2.85;;;;;;;7.26;70.19;101135.11;2730474;87;21201;-64
2021/04/14 07:24:42;;;;;;;7.50;4.25;;;;;;;7.31;69.20;101138.00;2728193;87;21631;-64
2021/04/14 07:29:22;;;;;;;9.23;4.37;;;;;;;7.46;69.53;101132.32;2775676;85;21165;-65
2021/04/14 07:34:17;;;;;;;13.98;5.28;;;;;;;7.46;69.53;101132.32;2730565;87;21881;-64
2021/04/14 07:38:45;;;;;;;7.40;2.98;;;;;;;7.55;69.53;101130.47;2630411;89;21217;-64
2021/04/14 07:43:02;;;;;;;6.53;3.75;;;;;;;7.38;68.82;101138.03;2674445;88;21627;-64
2021/04/14 07:47:09;;;;;;;5.58;3.05;;;;;;;7.39;69.18;101134.45;2718928;87;21209;-65
2021/04/14 07:51:19;;;;;;;5.78;2.90;;;;;;;7.42;69.19;101127.66;2717657;86;21197;-65
2021/04/14 07:55:32;;;;;;;6.90;2.87;;;;;;;7.52;68.70;101129.33;2710574;87;21118;-65
2021/04/14 07:59:39;;;;;;;11.18;5.78;;;;;;;7.60;69.32;101124.93;2666482;89;21184;-65
2021/04/14 08:03:43;;;;;;;7.70;5.65;;;;;;;7.52;68.24;101126.22;2666341;89;21181;-64
2021/04/14 08:07:46;;;;;;;12.60;7.55;;;;;;;7.39;68.55;101123.86;2670644;88;21189;-64
2021/04/14 08:11:51;;;;;;;11.65;4.08;;;;;;;7.42;69.36;101113.09;2771926;85;21201;-65
2021/04/14 08:15:56;;;;;;;9.78;4.47;;;;;;;7.47;70.11;101116.37;2772004;85;21173;-65
2021/04/14 08:20:01;;;;;;;6.92;3.67;;;;;;;7.44;69.86;101119.16;2772089;85;21687;-64
2021/04/14 08:24:16;;;;;;;10.83;4.77;;;;;;;7.42;69.92;101114.42;2772367;85;21176;-64
2021/04/14 08:28:36;;;;;;;9.85;5.17;;;;;;;7.48;70.39;101119.39;2771978;85;21177;-65
2021/04/14 08:32:45;;;;;;;10.43;5.95;;;;;;;7.64;69.81;101119.84;2771860;85;21500;-64
2021/04/14 08:37:14;;;;;;;25.72;5.12;;;;;;;7.77;68.37;101118.22;2771254;85;21190;-65
2021/04/14 08:41:29;;;;;;;5.33;3.60;;;;;;;7.70;67.86;101112.41;2771944;85;21615;-64
2021/04/14 08:45:33;;;;;;;6.33;3.72;;;;;;;7.90;69.69;101096.34;2771809;85;22220;-64
2021/04/14 08:49:36;;;;;;;12.43;4.67;;;;;;;7.94;68.00;101096.53;2771762;85;21181;-64
2021/04/14 08:53:43;;;;;;;10.90;6.67;;;;;;;7.91;69.01;101101.52;2765060;85;21213;-64
2021/04/14 08:57:45;;;;;;;;;;;;;;;7.99;67.45;101095.78;2765132;85;21231;-65
2021/04/14 09:01:51;;;;;;;9.08;5.30;;;;;;;8.09;67.59;101094.32;2762392;86;20144;-64
2021/04/14 09:05:55;;;;;;;10.35;3.45;;;;;;;8.17;68.64;101089.03;2762325;85;21177;-65
2021/04/14 09:10:04;;;;;;;10.93;3.15;;;;;;;8.22;65.82;101094.91;2762312;85;21600;-64
2021/04/14 09:14:28;;;;;;;5.53;3.80;;;;;;;8.29;67.40;101097.59;2762268;85;21512;-64
2021/04/14 09:18:42;;;;;;;8.18;3.45;;;;;;;8.30;65.24;101095.33;2762292;86;21177;-65
2021/04/14 09:23:05;;;;;;;7.75;3.20;;;;;;;8.35;65.08;101093.24;2762362;85;21599;-66
2021/04/14 09:27:33;;;;;;;39.80;21.97;;;;;;;8.59;66.37;101082.62;2762148;86;21137;-66
2021/04/14 09:31:41;;;;;;;4.83;2.08;;;;;;;8.75;63.36;101079.41;2762100;85;21213;-65
2021/04/14 09:35:55;;;;;;;4.28;2.42;;;;;;;8.98;61.31;101078.45;2749008;86;21193;-65
2021/04/14 09:40:03;;;;;;;26.30;13.45;;;;;;;9.20;60.77;101070.46;2762094;85;21173;-65
2021/04/14 09:44:34;;;;;;;31.48;14.58;;;;;;;9.42;60.89;101069.45;2762523;86;21179;-64
2021/04/14 09:48:46;;;;;;;5.12;2.67;;;;;;;9.76;62.50;101059.75;2762371;85;21141;-64
2021/04/14 09:53:02;;;;;;;4.12;2.15;;;;;;;9.69;59.45;101058.46;2771575;85;21176;-64
2021/04/14 09:57:10;;;;;;;8.15;4.72;;;;;;;9.38;58.63;101069.74;2784301;85;21196;-65
2021/04/14 10:01:34;;;;;;;2.55;2.02;;;;;;;9.14;60.37;101071.70;2784308;85;22206;-64
2021/04/14 10:05:38;;;;;;;5.70;2.90;;;;;;;9.04;61.54;101059.94;2784446;85;21679;-64
2021/04/14 10:09:41;;;;;;;7.40;3.55;;;;;;;9.08;60.93;101065.45;2784684;85;21197;-65
2021/04/14 10:13:44;;;;;;;7.42;3.65;;;;;;;9.09;60.74;101065.83;2784540;85;21208;-64
2021/04/14 10:17:47;;;;;;;8.70;3.77;;;;;;;9.05;61.11;101068.31;2784369;85;21160;-65
2021/04/14 10:21:52;;;;;;;2.75;2.20;;;;;;;8.94;61.21;101055.23;2784593;85;21181;-63
2021/04/14 10:26:04;;;;;;;10.63;4.17;;;;;;;9.06;62.29;101056.75;2784491;85;21205;-65
2021/04/14 10:30:11;;;;;;;7.58;4.25;;;;;;;9.36;62.55;101058.38;2784012;85;21188;-65
2021/04/14 10:34:36;;;;;;;8.30;3.72;;;;;;;9.67;61.13;101052.41;2784402;85;21461;-66
2021/04/14 10:38:39;;;;;;;13.18;3.02;;;;;;;9.72;62.05;101046.30;2784373;85;21216;-65
2021/04/14 10:42:42;;;;;;;8.75;3.62;;;;;;;9.41;60.95;101056.27;2784432;85;21180;-65
2021/04/14 10:46:46;;;;;;;6.70;3.12;;;;;;;9.06;62.16;101056.75;2784498;85;21153;-65
2021/04/14 10:50:50;;;;;;;6.50;4.12;;;;;;;8.80;63.08;101053.45;2784044;85;21654;-66
2021/04/14 10:54:57;;;;;;;9.00;4.30;;;;;;;8.60;62.00;101047.20;2784336;85;21173;-65
2021/04/14 10:59:05;;;;;;;11.15;4.78;;;;;;;8.67;64.71;101046.72;2784230;85;21793;-65
2021/04/14 11:03:14;;;;;;;3.67;3.33;;;;;;;8.73;64.04;101046.80;2784437;85;21168;-65
2021/04/14 11:07:23;;;;;;;9.15;2.83;;;;;;;8.38;61.37;101041.84;2784340;85;21654;-65
2021/04/14 11:11:27;;;;;;;4.42;4.03;;;;;;;8.21;62.48;101040.19;2784365;85;21403;-65
2021/04/14 11:15:34;;;;;;;5.35;3.80;;;;;;;8.15;63.46;101046.25;2784414;85;21543;-64
2021/04/14 11:19:43;;;;;;;7.03;4.22;;;;;;;8.11;63.53;101049.16;2784175;85;21173;-64
2021/04/14 11:23:42;;;;;;;7.25;4.70;;;;;;;8.16;65.59;101043.14;2783918;85;21614;-65
2021/04/14 11:27:45;;;;;;;10.38;5.45;;;;;;;8.21;65.36;101037.54;2784432;85;21193;-65
2021/04/14 11:31:51;;;;;;;5.60;4.35;;;;;;;8.35;63.32;101036.25;2784450;85;21209;-66
2021/04/14 11:35:54;;;;;;;8.73;3.85;;;;;;;8.49;61.94;101031.91;2784585;85;21180;-64
2021/04/14 11:40:21;;;;;;;5.53;4.08;;;;;;;8.57;61.04;101037.62;2774597;85;21606;-66
2021/04/14 11:44:28;;;;;;;;;;;;;;;8.64;61.25;101034.95;2786811;85;21662;-66
2021/04/14 11:48:38;;;;;;;6.53;2.75;;;;;;;8.78;63.40;101049.17;2784858;85;20137;-65
2021/04/14 11:52:57;;;;;;;4.55;2.55;;;;;;;8.87;59.55;101041.98;2783417;85;21186;-66
2021/04/14 11:57:27;;;;;;;6.72;3.80;;;;;;;8.90;58.78;101024.99;2778543;85;21197;-66
2021/04/14 12:01:34;;;;;;;10.55;3.62;;;;;;;8.83;60.02;101029.83;2768754;85;21173;-65
2021/04/14 12:05:37;;;;;;;4.67;3.67;;;;;;;8.79;59.39;101029.65;2778521;85;21172;-65
2021/04/14 12:09:40;;;;;;;13.38;2.83;;;;;;;8.83;61.63;101029.83;2778443;85;21180;-65
2021/04/14 12:13:43;;;;;;;9.98;3.47;;;;;;;8.76;60.78;101032.04;2768892;85;21705;-65
2021/04/14 12:17:46;;;;;;;5.90;2.98;;;;;;;8.83;59.99;101029.83;2778328;85;21213;-66
2021/04/14 12:21:51;;;;;;;5.65;2.85;;;;;;;8.78;58.89;101030.60;2778250;85;21185;-66
2021/04/14 12:25:53;;;;;;;3.55;3.10;;;;;;;8.80;59.08;101021.61;2778426;85;21168;-66
2021/04/14 12:29:57;;;;;;;7.75;2.60;;;;;;;8.88;58.64;101020.27;2778416;85;21618;-66
2021/04/14 12:34:05;;;;;;;6.30;3.22;;;;;;;9.02;58.20;101019.38;2778487;85;21180;-66
2021/04/14 12:38:08;;;;;;;4.72;3.22;;;;;;;9.16;58.81;101016.70;2778530;85;21189;-66
2021/04/14 12:42:12;;;;;;;8.83;4.40;;;;;;;9.21;58.88;101009.28;2778393;85;21206;-64
2021/04/14 12:46:18;;;;;;;4.25;3.55;;;;;;;9.25;58.54;101016.59;2778192;85;21189;-63
2021/04/14 12:50:22;;;;;;;6.25;3.20;;;;;;;9.21;59.82;101017.25;2778688;85;21201;-63
2021/04/14 12:54:36;;;;;;;7.22;2.75;;;;;;;9.07;59.20;101014.16;2778743;85;21165;-65
2021/04/14 12:58:40;;;;;;;2.92;2.15;;;;;;;8.90;58.07;101015.25;2778617;85;21176;-63
2021/04/14 13:02:58;;;;;;;8.53;3.98;;;;;;;8.70;58.37;101015.16;2778583;85;21149;-62
2021/04/14 13:07:11;;;;;;;9.43;4.45;;;;;;;8.64;59.97;101028.33;2780074;84;21193;-63
2021/04/14 13:11:22;;;;;;;3.08;2.65;;;;;;;8.63;59.84;101017.34;2777950;85;21200;-63
2021/04/14 13:15:47;;;;;;;5.37;3.05;;;;;;;8.51;60.58;101027.39;2777712;85;21192;-63
2021/04/14 13:19:53;;;;;;;9.28;4.05;;;;;;;8.13;64.04;101035.34;2778292;85;21201;-63
2021/04/14 13:24:36;;;;;;;1.92;1.80;;;;;;;7.79;64.96;101044.81;2773451;85;21626;-62
2021/04/14 13:28:47;;;;;;;3.87;2.42;;;;;;;7.58;66.23;101039.81;2777596;85;21638;-62
2021/04/14 13:32:59;;;;;;;2.87;2.58;;;;;;;7.46;67.30;101029.91;2770270;85;21166;-59
2021/04/14 13:37:29;;;;;;;10.13;3.22;;;;;;;7.58;66.83;101029.23;2731421;87;21618;-60
2021/04/14 13:41:45;;;;;;;3.33;2.98;;;;;;;7.82;64.75;101022.61;2731545;87;21185;-63
2021/04/14 13:45:59;;;;;;;7.87;3.85;;;;;;;8.07;63.99;101011.88;2731314;87;21133;-60
2021/04/14 13:50:07;;;;;;;4.47;3.08;;;;;;;8.27;63.95;101003.58;2731323;87;21164;-60
2021/04/14 13:54:13;;;;;;;4.67;4.08;;;;;;;8.50;63.97;100996.52;2731205;87;21153;-62
2021/04/14 13:58:28;;;;;;;5.28;3.08;;;;;;;8.64;63.68;100999.15;2731431;87;21164;-62
2021/04/14 14:02:36;;;;;;;5.45;4.58;;;;;;;8.73;63.38;100996.89;2742908;85;21168;-62
2021/04/14 14:06:56;;;;;;;8.75;5.03;;;;;;;8.83;63.52;100990.03;2766476;85;21192;-63
2021/04/14 14:11:07;;;;;;;5.58;3.55;;;;;;;8.95;61.85;100984.45;2781550;85;21630;-65
2021/04/14 14:15:15;;;;;;;5.10;3.02;;;;;;;9.08;59.39;100984.51;2777577;85;21188;-62
2021/04/14 14:19:36;;;;;;;3.58;2.35;;;;;;;9.32;61.17;100982.04;2996865;77;22947;-62
2021/04/14 14:23:43;;;;;;;4.75;3.17;;;;;;;8.80;64.33;101011.45;2950961;80;21979;-63
2021/04/14 14:27:48;;;;;;;3.30;1.47;;;;;;;8.18;64.56;100997.98;2951517;80;21137;-62
2021/04/14 14:31:58;;;;;;;1.70;1.60;;;;;;;7.96;62.00;100991.31;2950803;80;21157;-62
2021/04/14 14:36:31;;;;;;;5.15;2.37;;;;;;;8.02;61.57;100987.45;2945122;79;21141;-60
2021/04/14 14:40:35;;;;;;;3.40;2.08;;;;;;;8.16;63.20;100988.81;2907011;80;21113;-61
2021/04/14 14:44:59;;;;;;;3.05;2.77;;;;;;;8.35;61.16;100984.55;2881199;80;21655;-61
2021/04/14 14:49:30;;;;;;;5.37;2.98;;;;;;;8.52;61.25;100982.70;2853881;83;21159;-64
2021/04/14 14:53:43;;;;;;;5.10;2.80;;;;;;;8.77;61.34;100978.03;2872283;80;21148;-63
2021/04/14 14:57:47;;;;;;;15.70;3.42;;;;;;;9.05;60.22;100971.44;2874718;80;21108;-65
2021/04/14 15:01:52;;;;;;;4.50;2.70;;;;;;;9.21;58.34;100975.27;2878237;80;21172;-64
2021/04/14 15:05:55;;;;;;;7.05;2.60;;;;;;;9.29;58.32;100976.47;2883077;80;21194;-62
2021/04/14 15:09:58;;;;;;;8.08;3.60;;;;;;;9.16;59.22;100979.55;2904037;81;21096;-62
2021/04/14 15:14:51;;;;;;;3.12;2.62;;;;;;;8.90;60.22;100978.56;2903678;80;21614;-62
2021/04/14 15:20:10;;;;;;;3.90;2.60;;;;;;;8.70;60.66;100972.27;2749210;86;21241;-62
2021/04/14 15:25:24;;;;;;;3.33;2.47;;;;;;;8.41;62.72;100978.86;2751396;86;21117;-60
2021/04/14 15:30:33;;;;;;;6.00;3.98;;;;;;;7.71;68.95;100973.75;2749373;86;21168;-63
2021/04/14 15:34:43;;;;;;;5.58;4.33;;;;;;;7.28;70.55;100986.37;2710552;85;21196;-60
2021/04/14 15:38:49;;;;;;;6.35;4.62;;;;;;;7.31;71.01;100984.49;2727748;86;21197;-64
2021/04/14 15:42:53;;;;;;;4.40;4.10;;;;;;;7.42;70.88;100984.72;2749989;86;21149;-62
2021/04/14 15:46:56;;;;;;;6.33;4.53;;;;;;;7.60;70.07;100988.11;2749888;86;21170;-64
2021/04/14 15:51:00;;;;;;;5.80;5.10;;;;;;;7.64;69.23;100984.79;2750676;85;21671;-61
2021/04/14 15:55:07;;;;;;;5.55;4.10;;;;;;;7.67;69.13;100989.94;2785562;85;21169;-63
2021/04/14 15:59:13;;;;;;;10.23;5.45;;;;;;;7.75;69.56;100992.97;2792569;85;21177;-61
2021/04/14 16:03:17;;;;;;;6.83;3.45;;;;;;;7.80;68.79;100989.57;2785223;85;21208;-61
2021/04/14 16:07:22;;;;;;;6.22;2.80;;;;;;;7.80;67.39;100989.57;2749932;82;21711;-63
2021/04/14 16:11:26;;;;;;;3.50;3.02;;;;;;;7.75;64.93;101000.92;2872774;82;21205;-62
2021/04/14 16:15:31;;;;;;;3.90;2.37;;;;;;;7.71;66.13;100992.29;2882317;80;21176;-63
2021/04/14 16:19:36;;;;;;;3.62;2.58;;;;;;;7.66;64.87;100993.50;2891319;79;21121;-62
2021/04/14 16:23:40;;;;;;;3.47;3.17;;;;;;;7.56;65.28;100998.02;2889329;80;21558;-62
2021/04/14 16:27:43;;;;;;;3.27;2.72;;;;;;;7.55;65.47;100994.98;2875970;80;21144;-62
2021/04/14 16:31:48;;;;;;;4.00;3.47;;;;;;;7.45;65.01;100994.28;2882360;80;21430;-63
2021/04/14 16:35:53;;;;;;;7.33;3.58;;;;;;;7.39;65.82;100993.70;2884377;80;21164;-63
2021/04/14 16:39:56;;;;;;;5.03;3.00;;;;;;;7.37;66.90;100997.37;2890328;80;21136;-64
2021/04/14 16:44:00;;;;;;;3.95;3.40;;;;;;;7.27;65.91;100992.61;2891340;80;21152;-63
2021/04/14 16:48:04;;;;;;;5.60;3.95;;;;;;;7.24;66.20;100983.50;2871214;81;21143;-63
2021/04/14 16:52:09;;;;;;;4.28;3.08;;;;;;;7.20;66.07;100980.65;2858379;83;21146;-64
2021/04/14 16:56:12;;;;;;;8.93;2.92;;;;;;;7.19;66.75;100980.75;2858030;83;21128;-63
2021/04/14 17:00:20;;;;;;;5.42;4.15;;;;;;;7.17;67.28;100985.25;2878943;80;21117;-63
2021/04/14 17:04:24;;;;;;;6.20;3.62;;;;;;;7.15;67.13;100982.22;2887734;80;21741;-63
2021/04/14 17:08:28;;;;;;;5.65;4.28;;;;;;;7.08;66.67;100979.55;2878477;80;21137;-63
2021/04/14 17:12:32;;;;;;;10.20;4.35;;;;;;;7.03;67.02;100980.74;2875554;80;21591;-63
2021/04/14 17:16:38;;;;;;;8.98;7.03;;;;;;;7.00;67.04;100986.59;2880095;80;21144;-64
2021/04/14 17:20:42;;;;;;;32.08;16.42;;;;;;;6.99;67.16;100982.73;2871303;80;21173;-63
2021/04/14 17:24:45;;;;;;;85.15;42.38;;;;;;;7.02;66.84;100978.58;2871105;80;21129;-64
2021/04/14 17:28:49;;;;;;;49.60;27.13;;;;;;;7.03;66.78;100988.22;2868873;80;21097;-63
2021/04/14 17:32:53;;;;;;;64.12;40.63;;;;;;;7.03;66.71;100986.03;2881179;80;21195;-62
2021/04/14 17:36:56;;;;;;;47.78;28.00;;;;;;;7.00;66.92;100986.59;2881200;80;21164;-64
2021/04/14 17:41:00;;;;;;;51.48;30.48;;;;;;;6.97;67.07;100996.02;2872737;80;21164;-63
2021/04/14 17:45:08;;;;;;;45.67;24.18;;;;;;;6.97;67.46;100989.41;2881723;80;21186;-62
2021/04/14 17:49:12;;;;;;;25.27;14.03;;;;;;;6.94;67.60;100988.27;2902773;81;21144;-67
2021/04/14 17:53:16;;;;;;;11.22;8.35;;;;;;;6.89;67.58;100992.09;2894131;80;21164;-64
2021/04/14 17:57:19;;;;;;;15.55;8.78;;;;;;;6.84;67.80;100990.56;2894082;82;21152;-65
2021/04/14 18:01:22;;;;;;;12.50;7.10;;;;;;;6.83;67.55;100990.18;2853417;83;21108;-67
2021/04/14 18:05:26;;;;;;;6.47;5.00;;;;;;;6.80;67.73;101000.06;2887859;82;21161;-65
2021/04/14 18:09:29;;;;;;;8.98;5.10;;;;;;;6.78;67.78;100992.69;2902833;81;21159;-63
2021/04/14 18:13:34;;;;;;;8.08;6.15;;;;;;;6.76;67.59;100997.20;2902815;82;21129;-64
2021/04/14 18:17:37;;;;;;;12.28;6.97;;;;;;;6.78;67.84;101001.94;2902585;81;21507;-65
2021/04/14 18:21:40;;;;;;;11.55;7.35;;;;;;;6.77;68.01;101007.69;2902515;81;21611;-63
2021/04/14 18:25:47;;;;;;;9.08;6.25;;;;;;;6.71;68.03;101002.28;2902815;82;21168;-64
2021/04/14 18:29:54;;;;;;;9.95;7.37;;;;;;;6.64;68.45;101010.14;2902742;82;21137;-64
2021/04/14 18:33:57;;;;;;;13.28;8.23;;;;;;;6.57;68.85;101015.38;2902818;80;21483;-63
2021/04/14 18:38:00;;;;;;;9.78;7.17;;;;;;;6.55;68.93;101016.77;2902661;82;21531;-63
2021/04/14 18:42:04;;;;;;;7.80;6.15;;;;;;;6.47;70.28;101015.47;2902481;80;21622;-64
2021/04/14 18:46:07;;;;;;;9.70;7.72;;;;;;;6.24;71.61;101017.54;2902560;81;21105;-64
2021/04/14 18:50:13;;;;;;;15.25;7.85;;;;;;;6.03;72.98;101023.48;2902781;81;21611;-64
2021/04/14 18:54:15;;;;;;;14.55;8.68;;;;;;;5.82;74.14;101017.84;2902514;82;22196;-64
2021/04/14 18:58:19;;;;;;;10.25;8.20;;;;;;;5.68;75.01;101024.27;2902408;82;21148;-62
2021/04/14 19:02:24;;;;;;;15.23;9.15;;;;;;;5.55;75.74;101026.66;2904818;80;21140;-63
2021/04/14 19:06:27;;;;;;;7.35;6.10;;;;;;;5.50;76.01;101028.23;2902862;81;21121;-62
2021/04/14 19:10:37;;;;;;;10.90;6.83;;;;;;;5.49;76.48;101031.77;2884762;80;21586;-62
2021/04/14 19:14:44;;;;;;;13.62;7.28;;;;;;;5.47;77.12;101030.98;2875786;80;21145;-62
2021/04/14 19:18:49;;;;;;;10.48;8.30;;;;;;;5.45;77.27;101034.17;2854757;82;21156;-62
2021/04/14 19:22:56;;;;;;;15.60;9.08;;;;;;;5.43;77.61;101038.67;2857976;83;21145;-61
2021/04/14 19:27:02;;;;;;;14.80;9.08;;;;;;;5.39;78.05;101041.91;2857950;82;21160;-61